Terminal Aerodrome Forecast
Issued by NWS

Home | Current Version | Previous Version | Text Only | Print | Product List | Glossary On
Versions: 1 2 3 4 5 6 7 8 9 10 11 12 13 14 15 16 17 18 19 20 21 22 23 24 25
000
FTUS43 KDLH 211600 AAB
TAFBRD
TAF AMD
KBRD 211601Z 2116/2212 17005KT P6SM BKN015
      TEMPO 2116/2118 SCT015
     FM211800 17009G18KT P6SM SCT050
     FM220100 13005KT 5SM TSRA BKN050CB
      TEMPO 2203/2206 4SM TSRA BKN020CB
     FM220700 18010KT P6SM VCTS BKN025CB=

USA.gov is the U.S. government's official web portal to all federal, state and local government web resources and services.